Air Navigation Services of Czech Republic
Airport: LKTB Updated:  15.10.2019 19:00:31  UTC
 METAR LKTB 15.10. 19:00 ...
METAR LKTB 151900Z 13012KT CAVOK 18/13 Q1008 NOSIG RMK REG QNH 1005=
 TAF LKTB 15.10. 17:00 ...
TAF LKTB 151700Z 1518/1700 13010KT CAVOK      TEMPO 1518/1521 15012G22KT      BECMG 1608/1610 26008KT 9999 RA BKN030      TEMPO 1610/1616 8000 RA BKN025      BECMG 1616/1618 VRB02KT CAVOK      BECMG 1621/1700 3000 BR BKN010=